sensor_id;sensor_type;location;lat;lon;timestamp;temperature;humidity
43641;DHT22;72791;52.546;13.570;2024-03-02T00:01:15;7.60;99.90
43641;DHT22;72791;52.546;13.570;2024-03-02T00:03:42;7.50;99.90
43641;DHT22;72791;52.546;13.570;2024-03-02T00:06:10;7.50;99.90
43641;DHT22;72791;52.546;13.570;2024-03-02T00:08:35;7.50;99.90
43641;DHT22;72791;52.546;13.570;2024-03-02T00:11:02;7.60;99.90
43641;DHT22;72791;52.546;13.570;2024-03-02T00:13:30;7.60;99.90
43641;DHT22;72791;52.546;13.570;2024-03-02T00:15:57;7.60;99.90
43641;DHT22;72791;52.546;13.570;2024-03-02T00:18:34;7.70;99.90
43641;DHT22;72791;52.546;13.570;2024-03-02T00:21:00;7.60;99.90
43641;DHT22;72791;52.546;13.570;2024-03-02T00:23:30;7.70;99.90
43641;DHT22;72791;52.546;13.570;2024-03-02T00:25:59;7.70;99.90
43641;DHT22;72791;52.546;13.570;2024-03-02T00:28:35;7.70;99.90
43641;DHT22;72791;52.546;13.570;2024-03-02T00:31:13;7.70;99.90
43641;DHT22;72791;52.546;13.570;2024-03-02T00:33:44;7.70;99.90
43641;DHT22;72791;52.546;13.570;2024-03-02T00:36:21;7.70;99.90
43641;DHT22;72791;52.546;13.570;2024-03-02T00:38:49;7.70;99.90
43641;DHT22;72791;52.546;13.570;2024-03-02T00:41:27;7.70;99.90
43641;DHT22;72791;52.546;13.570;2024-03-02T00:44:06;7.70;99.90
43641;DHT22;72791;52.546;13.570;2024-03-02T00:46:35;7.70;99.90
43641;DHT22;72791;52.546;13.570;2024-03-02T00:51:47;7.70;99.90
43641;DHT22;72791;52.546;13.570;2024-03-02T00:54:23;7.70;99.90
43641;DHT22;72791;52.546;13.570;2024-03-02T00:56:51;7.70;99.90
43641;DHT22;72791;52.546;13.570;2024-03-02T00:59:18;7.70;99.90
43641;DHT22;72791;52.546;13.570;2024-03-02T01:01:45;7.70;99.90
43641;DHT22;72791;52.546;13.570;2024-03-02T01:04:12;7.70;99.90
43641;DHT22;72791;52.546;13.570;2024-03-02T01:06:42;7.60;99.90
43641;DHT22;72791;52.546;13.570;2024-03-02T01:09:09;7.70;99.90
43641;DHT22;72791;52.546;13.570;2024-03-02T01:11:34;7.70;99.90
43641;DHT22;72791;52.546;13.570;2024-03-02T01:14:00;7.70;99.90
43641;DHT22;72791;52.546;13.570;2024-03-02T01:16:29;7.70;99.90
43641;DHT22;72791;52.546;13.570;2024-03-02T01:18:56;7.60;99.90
43641;DHT22;72791;52.546;13.570;2024-03-02T01:21:21;7.70;99.90
43641;DHT22;72791;52.546;13.570;2024-03-02T01:23:48;7.70;99.90
43641;DHT22;72791;52.546;13.570;2024-03-02T01:26:13;7.70;99.90
43641;DHT22;72791;52.546;13.570;2024-03-02T01:28:41;7.70;99.90
43641;DHT22;72791;52.546;13.570;2024-03-02T01:31:07;7.70;99.90
43641;DHT22;72791;52.546;13.570;2024-03-02T01:33:33;7.70;99.90
43641;DHT22;72791;52.546;13.570;2024-03-02T01:36:01;7.80;99.90
43641;DHT22;72791;52.546;13.570;2024-03-02T01:38:29;7.80;99.90
43641;DHT22;72791;52.546;13.570;2024-03-02T01:40:55;7.80;99.90
43641;DHT22;72791;52.546;13.570;2024-03-02T01:43:22;7.80;99.90
43641;DHT22;72791;52.546;13.570;2024-03-02T01:45:47;7.80;99.90
43641;DHT22;72791;52.546;13.570;2024-03-02T01:48:13;7.80;99.90
43641;DHT22;72791;52.546;13.570;2024-03-02T01:50:39;7.80;99.90
43641;DHT22;72791;52.546;13.570;2024-03-02T01:53:05;7.90;99.90
43641;DHT22;72791;52.546;13.570;2024-03-02T01:55:30;7.90;99.90
43641;DHT22;72791;52.546;13.570;2024-03-02T01:57:56;7.80;99.90
43641;DHT22;72791;52.546;13.570;2024-03-02T02:00:23;7.80;99.90
43641;DHT22;72791;52.546;13.570;2024-03-02T02:02:52;7.90;99.90
43641;DHT22;72791;52.546;13.570;2024-03-02T02:05:18;7.90;99.90
43641;DHT22;72791;52.546;13.570;2024-03-02T02:07:45;7.90;99.90
43641;DHT22;72791;52.546;13.570;2024-03-02T02:10:11;7.90;99.90
43641;DHT22;72791;52.546;13.570;2024-03-02T02:12:38;7.90;99.90
43641;DHT22;72791;52.546;13.570;2024-03-02T02:15:28;7.90;99.90
43641;DHT22;72791;52.546;13.570;2024-03-02T02:17:58;7.90;99.90
43641;DHT22;72791;52.546;13.570;2024-03-02T02:20:26;7.90;99.90
43641;DHT22;72791;52.546;13.570;2024-03-02T02:23:03;8.00;99.90
43641;DHT22;72791;52.546;13.570;2024-03-02T02:25:31;8.00;99.90
43641;DHT22;72791;52.546;13.570;2024-03-02T02:27:58;8.00;99.90
43641;DHT22;72791;52.546;13.570;2024-03-02T02:30:29;8.00;99.90
43641;DHT22;72791;52.546;13.570;2024-03-02T02:32:55;8.10;99.90
43641;DHT22;72791;52.546;13.570;2024-03-02T02:35:23;8.10;99.90
43641;DHT22;72791;52.546;13.570;2024-03-02T02:37:50;8.10;99.90
43641;DHT22;72791;52.546;13.570;2024-03-02T02:40:17;8.10;99.90
43641;DHT22;72791;52.546;13.570;2024-03-02T02:42:47;8.10;99.90
43641;DHT22;72791;52.546;13.570;2024-03-02T02:45:12;8.10;99.90
43641;DHT22;72791;52.546;13.570;2024-03-02T02:47:43;8.10;99.90
43641;DHT22;72791;52.546;13.570;2024-03-02T02:50:11;8.10;99.90
43641;DHT22;72791;52.546;13.570;2024-03-02T02:52:38;8.20;99.90
43641;DHT22;72791;52.546;13.570;2024-03-02T02:55:08;8.20;99.90
43641;DHT22;72791;52.546;13.570;2024-03-02T02:57:35;8.20;99.90
43641;DHT22;72791;52.546;13.570;2024-03-02T03:00:07;8.20;99.90
43641;DHT22;72791;52.546;13.570;2024-03-02T03:02:49;8.20;99.90
43641;DHT22;72791;52.546;13.570;2024-03-02T03:05:16;8.20;99.90
43641;DHT22;72791;52.546;13.570;2024-03-02T03:07:43;8.20;99.90
43641;DHT22;72791;52.546;13.570;2024-03-02T03:10:15;8.30;99.90
43641;DHT22;72791;52.546;13.570;2024-03-02T03:12:41;8.30;99.90
43641;DHT22;72791;52.546;13.570;2024-03-02T03:15:09;8.30;99.90
43641;DHT22;72791;52.546;13.570;2024-03-02T03:17:35;8.30;99.90
43641;DHT22;72791;52.546;13.570;2024-03-02T03:20:04;8.30;99.90
43641;DHT22;72791;52.546;13.570;2024-03-02T03:22:31;8.40;99.90
43641;DHT22;72791;52.546;13.570;2024-03-02T03:24:57;8.30;99.90
43641;DHT22;72791;52.546;13.570;2024-03-02T03:27:23;8.40;99.90
43641;DHT22;72791;52.546;13.570;2024-03-02T03:29:49;8.40;99.90
43641;DHT22;72791;52.546;13.570;2024-03-02T03:32:15;8.40;99.90
43641;DHT22;72791;52.546;13.570;2024-03-02T03:34:42;8.40;99.90
43641;DHT22;72791;52.546;13.570;2024-03-02T03:37:07;8.40;99.90
43641;DHT22;72791;52.546;13.570;2024-03-02T03:39:34;8.50;99.90
43641;DHT22;72791;52.546;13.570;2024-03-02T03:42:01;8.50;99.90
43641;DHT22;72791;52.546;13.570;2024-03-02T03:44:27;8.50;99.90
43641;DHT22;72791;52.546;13.570;2024-03-02T03:46:53;8.50;99.90
43641;DHT22;72791;52.546;13.570;2024-03-02T03:49:19;8.50;99.90
43641;DHT22;72791;52.546;13.570;2024-03-02T03:51:46;8.50;99.90
43641;DHT22;72791;52.546;13.570;2024-03-02T03:54:12;8.50;99.90
43641;DHT22;72791;52.546;13.570;2024-03-02T03:56:38;8.50;99.90
43641;DHT22;72791;52.546;13.570;2024-03-02T03:59:03;8.50;99.90
43641;DHT22;72791;52.546;13.570;2024-03-02T04:01:30;8.50;99.90
43641;DHT22;72791;52.546;13.570;2024-03-02T04:03:58;8.50;99.90
43641;DHT22;72791;52.546;13.570;2024-03-02T04:06:24;8.50;99.90
43641;DHT22;72791;52.546;13.570;2024-03-02T04:08:50;8.50;99.90
43641;DHT22;72791;52.546;13.570;2024-03-02T04:11:15;8.50;99.90
43641;DHT22;72791;52.546;13.570;2024-03-02T04:13:41;8.50;99.90
43641;DHT22;72791;52.546;13.570;2024-03-02T04:16:07;8.60;99.90
43641;DHT22;72791;52.546;13.570;2024-03-02T04:18:32;8.50;99.90
43641;DHT22;72791;52.546;13.570;2024-03-02T04:20:58;8.60;99.90
43641;DHT22;72791;52.546;13.570;2024-03-02T04:23:27;8.60;99.90
43641;DHT22;72791;52.546;13.570;2024-03-02T04:25:52;8.60;99.90
43641;DHT22;72791;52.546;13.570;2024-03-02T04:28:19;8.60;99.90
43641;DHT22;72791;52.546;13.570;2024-03-02T04:30:44;8.60;99.90
43641;DHT22;72791;52.546;13.570;2024-03-02T04:33:11;8.60;99.90
43641;DHT22;72791;52.546;13.570;2024-03-02T04:35:38;8.60;99.90
43641;DHT22;72791;52.546;13.570;2024-03-02T04:38:04;8.60;99.90
43641;DHT22;72791;52.546;13.570;2024-03-02T04:40:30;8.60;99.90
43641;DHT22;72791;52.546;13.570;2024-03-02T04:42:55;8.60;99.90
43641;DHT22;72791;52.546;13.570;2024-03-02T04:45:21;8.60;99.90
43641;DHT22;72791;52.546;13.570;2024-03-02T04:47:48;8.60;99.90
43641;DHT22;72791;52.546;13.570;2024-03-02T04:50:15;8.50;99.90
43641;DHT22;72791;52.546;13.570;2024-03-02T04:52:42;8.60;99.90
43641;DHT22;72791;52.546;13.570;2024-03-02T04:55:08;8.50;99.90
43641;DHT22;72791;52.546;13.570;2024-03-02T04:57:39;8.50;99.90
43641;DHT22;72791;52.546;13.570;2024-03-02T05:00:06;8.60;99.90
43641;DHT22;72791;52.546;13.570;2024-03-02T05:02:36;8.50;99.90
43641;DHT22;72791;52.546;13.570;2024-03-02T05:05:01;8.50;99.90
43641;DHT22;72791;52.546;13.570;2024-03-02T05:07:28;8.60;99.90
43641;DHT22;72791;52.546;13.570;2024-03-02T05:09:54;8.60;99.90
43641;DHT22;72791;52.546;13.570;2024-03-02T05:12:20;8.60;99.90
43641;DHT22;72791;52.546;13.570;2024-03-02T05:15:05;8.60;99.90
43641;DHT22;72791;52.546;13.570;2024-03-02T05:17:32;8.60;99.90
43641;DHT22;72791;52.546;13.570;2024-03-02T05:19:58;8.60;99.90
43641;DHT22;72791;52.546;13.570;2024-03-02T05:22:24;8.60;99.90
43641;DHT22;72791;52.546;13.570;2024-03-02T05:24:51;8.70;99.90
43641;DHT22;72791;52.546;13.570;2024-03-02T05:27:19;8.70;99.90
43641;DHT22;72791;52.546;13.570;2024-03-02T05:29:47;8.70;99.90
43641;DHT22;72791;52.546;13.570;2024-03-02T05:32:15;8.70;99.90
43641;DHT22;72791;52.546;13.570;2024-03-02T05:34:40;8.70;99.90
43641;DHT22;72791;52.546;13.570;2024-03-02T05:37:06;8.70;99.90
43641;DHT22;72791;52.546;13.570;2024-03-02T05:39:33;8.80;99.90
43641;DHT22;72791;52.546;13.570;2024-03-02T05:42:19;8.80;99.90
43641;DHT22;72791;52.546;13.570;2024-03-02T05:44:45;8.80;99.90
43641;DHT22;72791;52.546;13.570;2024-03-02T05:47:11;8.80;99.90
43641;DHT22;72791;52.546;13.570;2024-03-02T05:49:37;8.80;99.90
43641;DHT22;72791;52.546;13.570;2024-03-02T05:52:03;8.80;99.90
43641;DHT22;72791;52.546;13.570;2024-03-02T05:54:32;8.80;99.90
43641;DHT22;72791;52.546;13.570;2024-03-02T05:57:00;8.80;99.90
43641;DHT22;72791;52.546;13.570;2024-03-02T05:59:43;8.80;99.90
43641;DHT22;72791;52.546;13.570;2024-03-02T06:02:11;8.80;99.90
43641;DHT22;72791;52.546;13.570;2024-03-02T06:04:39;8.80;99.90
43641;DHT22;72791;52.546;13.570;2024-03-02T06:07:06;8.80;99.90
43641;DHT22;72791;52.546;13.570;2024-03-02T06:09:32;8.80;99.90
43641;DHT22;72791;52.546;13.570;2024-03-02T06:11:58;8.80;99.90
43641;DHT22;72791;52.546;13.570;2024-03-02T06:14:25;8.80;99.90
43641;DHT22;72791;52.546;13.570;2024-03-02T06:16:51;8.80;99.90
43641;DHT22;72791;52.546;13.570;2024-03-02T06:19:17;8.80;99.90
43641;DHT22;72791;52.546;13.570;2024-03-02T06:21:44;8.80;99.90
43641;DHT22;72791;52.546;13.570;2024-03-02T06:24:10;8.80;99.90
43641;DHT22;72791;52.546;13.570;2024-03-02T06:26:36;8.70;99.90
43641;DHT22;72791;52.546;13.570;2024-03-02T06:29:06;8.70;99.90
43641;DHT22;72791;52.546;13.570;2024-03-02T06:31:36;8.80;99.90
43641;DHT22;72791;52.546;13.570;2024-03-02T06:34:03;8.80;99.90
43641;DHT22;72791;52.546;13.570;2024-03-02T06:36:30;8.80;99.90
43641;DHT22;72791;52.546;13.570;2024-03-02T06:38:57;8.80;99.90
43641;DHT22;72791;52.546;13.570;2024-03-02T06:41:25;8.80;99.90
43641;DHT22;72791;52.546;13.570;2024-03-02T06:43:52;8.80;99.90
43641;DHT22;72791;52.546;13.570;2024-03-02T06:46:25;8.90;99.90
43641;DHT22;72791;52.546;13.570;2024-03-02T06:48:52;8.90;99.90
43641;DHT22;72791;52.546;13.570;2024-03-02T06:51:18;8.90;99.90
43641;DHT22;72791;52.546;13.570;2024-03-02T06:53:46;9.00;99.90
43641;DHT22;72791;52.546;13.570;2024-03-02T06:56:12;9.10;99.90
43641;DHT22;72791;52.546;13.570;2024-03-02T06:58:39;9.10;99.90
43641;DHT22;72791;52.546;13.570;2024-03-02T07:01:07;9.20;99.90
43641;DHT22;72791;52.546;13.570;2024-03-02T07:03:34;9.20;99.90
43641;DHT22;72791;52.546;13.570;2024-03-02T07:06:01;9.20;99.90
43641;DHT22;72791;52.546;13.570;2024-03-02T07:08:27;9.20;99.90
43641;DHT22;72791;52.546;13.570;2024-03-02T07:10:54;9.30;99.90
43641;DHT22;72791;52.546;13.570;2024-03-02T07:13:19;9.30;99.90
43641;DHT22;72791;52.546;13.570;2024-03-02T07:16:05;9.30;99.90
43641;DHT22;72791;52.546;13.570;2024-03-02T07:18:55;9.30;99.90
43641;DHT22;72791;52.546;13.570;2024-03-02T07:21:22;9.40;99.90
43641;DHT22;72791;52.546;13.570;2024-03-02T07:23:51;9.40;99.90
43641;DHT22;72791;52.546;13.570;2024-03-02T07:26:17;9.40;99.90
43641;DHT22;72791;52.546;13.570;2024-03-02T07:28:47;9.40;99.90
43641;DHT22;72791;52.546;13.570;2024-03-02T07:31:15;9.50;99.90
43641;DHT22;72791;52.546;13.570;2024-03-02T07:33:41;9.50;99.90
43641;DHT22;72791;52.546;13.570;2024-03-02T07:36:07;9.50;99.90
43641;DHT22;72791;52.546;13.570;2024-03-02T07:38:34;9.50;99.90
43641;DHT22;72791;52.546;13.570;2024-03-02T07:41:01;9.50;99.90
43641;DHT22;72791;52.546;13.570;2024-03-02T07:43:27;9.50;99.90
43641;DHT22;72791;52.546;13.570;2024-03-02T07:45:53;9.60;99.90
43641;DHT22;72791;52.546;13.570;2024-03-02T07:48:19;9.60;99.90
43641;DHT22;72791;52.546;13.570;2024-03-02T07:50:45;9.60;99.90
43641;DHT22;72791;52.546;13.570;2024-03-02T07:53:12;9.60;99.90
43641;DHT22;72791;52.546;13.570;2024-03-02T07:55:38;9.60;99.90
43641;DHT22;72791;52.546;13.570;2024-03-02T07:58:04;9.60;99.90
43641;DHT22;72791;52.546;13.570;2024-03-02T08:00:30;9.70;99.90
43641;DHT22;72791;52.546;13.570;2024-03-02T08:02:56;9.70;99.90
43641;DHT22;72791;52.546;13.570;2024-03-02T08:05:22;9.70;99.90
43641;DHT22;72791;52.546;13.570;2024-03-02T08:07:48;9.70;99.90
43641;DHT22;72791;52.546;13.570;2024-03-02T08:10:18;9.70;99.90
43641;DHT22;72791;52.546;13.570;2024-03-02T08:12:44;9.80;99.90
43641;DHT22;72791;52.546;13.570;2024-03-02T08:15:11;9.90;99.90
43641;DHT22;72791;52.546;13.570;2024-03-02T08:17:40;10.00;99.90
43641;DHT22;72791;52.546;13.570;2024-03-02T08:20:11;10.10;99.90
43641;DHT22;72791;52.546;13.570;2024-03-02T08:22:39;10.20;99.90
43641;DHT22;72791;52.546;13.570;2024-03-02T08:25:06;10.30;99.90
43641;DHT22;72791;52.546;13.570;2024-03-02T08:27:37;10.30;99.90
43641;DHT22;72791;52.546;13.570;2024-03-02T08:30:05;10.30;99.90
43641;DHT22;72791;52.546;13.570;2024-03-02T08:32:32;10.40;99.90
43641;DHT22;72791;52.546;13.570;2024-03-02T08:34:57;10.50;99.90
43641;DHT22;72791;52.546;13.570;2024-03-02T08:37:23;10.50;99.90
43641;DHT22;72791;52.546;13.570;2024-03-02T08:39:49;10.50;99.90
43641;DHT22;72791;52.546;13.570;2024-03-02T08:42:15;10.50;99.90
43641;DHT22;72791;52.546;13.570;2024-03-02T08:44:42;10.60;99.90
43641;DHT22;72791;52.546;13.570;2024-03-02T08:47:14;10.60;99.90
43641;DHT22;72791;52.546;13.570;2024-03-02T08:49:42;10.60;99.90
43641;DHT22;72791;52.546;13.570;2024-03-02T08:52:07;10.60;99.90
43641;DHT22;72791;52.546;13.570;2024-03-02T08:54:33;10.50;99.90
43641;DHT22;72791;52.546;13.570;2024-03-02T08:57:01;10.50;99.90
43641;DHT22;72791;52.546;13.570;2024-03-02T08:59:26;10.50;99.90
43641;DHT22;72791;52.546;13.570;2024-03-02T09:01:53;10.50;99.90
43641;DHT22;72791;52.546;13.570;2024-03-02T09:04:19;10.60;99.90
43641;DHT22;72791;52.546;13.570;2024-03-02T09:06:45;10.60;99.90
43641;DHT22;72791;52.546;13.570;2024-03-02T09:09:14;10.60;99.90
43641;DHT22;72791;52.546;13.570;2024-03-02T09:11:40;10.70;99.90
43641;DHT22;72791;52.546;13.570;2024-03-02T09:14:06;10.70;99.90
43641;DHT22;72791;52.546;13.570;2024-03-02T09:16:31;10.70;99.90
43641;DHT22;72791;52.546;13.570;2024-03-02T09:18:59;10.80;99.90
43641;DHT22;72791;52.546;13.570;2024-03-02T09:21:25;10.80;99.90
43641;DHT22;72791;52.546;13.570;2024-03-02T09:23:51;10.90;99.90
43641;DHT22;72791;52.546;13.570;2024-03-02T09:26:17;11.00;99.90
43641;DHT22;72791;52.546;13.570;2024-03-02T09:28:46;11.10;99.90
43641;DHT22;72791;52.546;13.570;2024-03-02T09:31:13;11.30;99.90
43641;DHT22;72791;52.546;13.570;2024-03-02T09:33:38;11.40;99.90
43641;DHT22;72791;52.546;13.570;2024-03-02T09:36:05;11.60;99.90
43641;DHT22;72791;52.546;13.570;2024-03-02T09:38:34;11.80;99.90
43641;DHT22;72791;52.546;13.570;2024-03-02T09:41:00;12.00;99.90
43641;DHT22;72791;52.546;13.570;2024-03-02T09:43:26;12.10;99.90
43641;DHT22;72791;52.546;13.570;2024-03-02T09:45:54;12.30;99.90
43641;DHT22;72791;52.546;13.570;2024-03-02T09:48:22;12.50;99.90
43641;DHT22;72791;52.546;13.570;2024-03-02T09:50:49;12.80;99.90
43641;DHT22;72791;52.546;13.570;2024-03-02T09:53:18;13.00;99.90
43641;DHT22;72791;52.546;13.570;2024-03-02T09:55:46;13.20;99.90
43641;DHT22;72791;52.546;13.570;2024-03-02T09:58:12;13.30;99.90
43641;DHT22;72791;52.546;13.570;2024-03-02T10:00:43;13.40;99.90
43641;DHT22;72791;52.546;13.570;2024-03-02T10:03:12;13.60;99.90
43641;DHT22;72791;52.546;13.570;2024-03-02T10:05:38;13.60;99.90
43641;DHT22;72791;52.546;13.570;2024-03-02T10:08:04;13.70;99.90
43641;DHT22;72791;52.546;13.570;2024-03-02T10:10:38;13.70;99.90
43641;DHT22;72791;52.546;13.570;2024-03-02T10:13:12;13.90;99.90
43641;DHT22;72791;52.546;13.570;2024-03-02T10:15:41;14.00;99.90
43641;DHT22;72791;52.546;13.570;2024-03-02T10:18:10;14.00;99.90
43641;DHT22;72791;52.546;13.570;2024-03-02T10:20:37;14.10;99.90
43641;DHT22;72791;52.546;13.570;2024-03-02T10:23:14;14.10;99.90
43641;DHT22;72791;52.546;13.570;2024-03-02T10:25:40;14.20;99.90
43641;DHT22;72791;52.546;13.570;2024-03-02T10:28:06;14.30;99.90
43641;DHT22;72791;52.546;13.570;2024-03-02T10:30:33;14.40;99.90
43641;DHT22;72791;52.546;13.570;2024-03-02T10:33:06;14.60;99.90
43641;DHT22;72791;52.546;13.570;2024-03-02T10:35:33;14.60;99.90
43641;DHT22;72791;52.546;13.570;2024-03-02T10:38:04;14.60;99.90
43641;DHT22;72791;52.546;13.570;2024-03-02T10:40:32;14.60;99.90
43641;DHT22;72791;52.546;13.570;2024-03-02T10:42:59;14.70;99.90
43641;DHT22;72791;52.546;13.570;2024-03-02T10:45:24;14.70;99.90
43641;DHT22;72791;52.546;13.570;2024-03-02T10:47:51;14.60;99.90
43641;DHT22;72791;52.546;13.570;2024-03-02T10:50:17;14.50;99.90
43641;DHT22;72791;52.546;13.570;2024-03-02T10:52:42;14.50;99.90
43641;DHT22;72791;52.546;13.570;2024-03-02T10:55:09;14.50;99.90
43641;DHT22;72791;52.546;13.570;2024-03-02T10:57:53;14.50;99.90
43641;DHT22;72791;52.546;13.570;2024-03-02T11:00:20;14.70;99.90
43641;DHT22;72791;52.546;13.570;2024-03-02T11:02:58;14.70;99.90
43641;DHT22;72791;52.546;13.570;2024-03-02T11:05:28;14.80;99.90
43641;DHT22;72791;52.546;13.570;2024-03-02T11:08:06;14.80;99.90
43641;DHT22;72791;52.546;13.570;2024-03-02T11:10:37;14.90;99.90
43641;DHT22;72791;52.546;13.570;2024-03-02T11:13:11;15.00;99.90
43641;DHT22;72791;52.546;13.570;2024-03-02T11:15:40;15.00;99.90
43641;DHT22;72791;52.546;13.570;2024-03-02T11:18:08;15.10;99.90
43641;DHT22;72791;52.546;13.570;2024-03-02T11:20:41;15.00;99.90
43641;DHT22;72791;52.546;13.570;2024-03-02T11:23:11;15.00;99.90
43641;DHT22;72791;52.546;13.570;2024-03-02T11:25:39;15.10;99.90
43641;DHT22;72791;52.546;13.570;2024-03-02T11:28:06;15.10;99.90
43641;DHT22;72791;52.546;13.570;2024-03-02T11:33:05;14.90;99.90
43641;DHT22;72791;52.546;13.570;2024-03-02T11:35:41;14.70;99.90
43641;DHT22;72791;52.546;13.570;2024-03-02T11:38:12;14.50;99.90
43641;DHT22;72791;52.546;13.570;2024-03-02T11:40:39;14.50;99.90
43641;DHT22;72791;52.546;13.570;2024-03-02T11:43:06;14.40;99.90
43641;DHT22;72791;52.546;13.570;2024-03-02T11:45:36;14.30;99.90
43641;DHT22;72791;52.546;13.570;2024-03-02T11:48:06;14.30;99.90
43641;DHT22;72791;52.546;13.570;2024-03-02T11:50:42;14.50;99.90
43641;DHT22;72791;52.546;13.570;2024-03-02T11:53:11;14.60;99.90
43641;DHT22;72791;52.546;13.570;2024-03-02T11:55:40;14.70;99.90
43641;DHT22;72791;52.546;13.570;2024-03-02T11:58:17;14.70;99.90
43641;DHT22;72791;52.546;13.570;2024-03-02T12:00:43;14.90;99.90
43641;DHT22;72791;52.546;13.570;2024-03-02T12:03:13;15.10;99.90
43641;DHT22;72791;52.546;13.570;2024-03-02T12:05:40;15.30;99.90
43641;DHT22;72791;52.546;13.570;2024-03-02T12:08:07;15.60;99.90
43641;DHT22;72791;52.546;13.570;2024-03-02T12:10:35;15.50;99.90
43641;DHT22;72791;52.546;13.570;2024-03-02T12:13:05;15.70;99.90
43641;DHT22;72791;52.546;13.570;2024-03-02T12:15:39;15.70;99.90
43641;DHT22;72791;52.546;13.570;2024-03-02T12:18:05;15.70;99.90
43641;DHT22;72791;52.546;13.570;2024-03-02T12:20:33;15.80;99.90
43641;DHT22;72791;52.546;13.570;2024-03-02T12:23:00;15.80;99.90
43641;DHT22;72791;52.546;13.570;2024-03-02T12:25:27;15.90;99.90
43641;DHT22;72791;52.546;13.570;2024-03-02T12:27:58;15.90;99.90
43641;DHT22;72791;52.546;13.570;2024-03-02T12:30:29;16.00;99.90
43641;DHT22;72791;52.546;13.570;2024-03-02T12:32:56;15.90;99.90
43641;DHT22;72791;52.546;13.570;2024-03-02T12:35:21;15.90;99.90
43641;DHT22;72791;52.546;13.570;2024-03-02T12:37:49;15.90;99.90
43641;DHT22;72791;52.546;13.570;2024-03-02T12:40:16;16.00;99.90
43641;DHT22;72791;52.546;13.570;2024-03-02T12:42:48;16.10;99.90
43641;DHT22;72791;52.546;13.570;2024-03-02T12:45:14;16.10;99.90
43641;DHT22;72791;52.546;13.570;2024-03-02T12:47:42;16.20;99.90
43641;DHT22;72791;52.546;13.570;2024-03-02T12:50:09;16.30;99.90
43641;DHT22;72791;52.546;13.570;2024-03-02T12:52:36;16.30;99.90
43641;DHT22;72791;52.546;13.570;2024-03-02T12:55:05;16.40;99.90
43641;DHT22;72791;52.546;13.570;2024-03-02T12:57:33;16.30;99.90
43641;DHT22;72791;52.546;13.570;2024-03-02T13:00:03;16.40;99.90
43641;DHT22;72791;52.546;13.570;2024-03-02T13:02:40;16.40;99.90
43641;DHT22;72791;52.546;13.570;2024-03-02T13:05:08;16.60;99.90
43641;DHT22;72791;52.546;13.570;2024-03-02T13:07:39;16.70;99.90
43641;DHT22;72791;52.546;13.570;2024-03-02T13:10:12;16.70;99.90
43641;DHT22;72791;52.546;13.570;2024-03-02T13:12:38;16.60;99.90
43641;DHT22;72791;52.546;13.570;2024-03-02T13:15:04;16.60;99.90
43641;DHT22;72791;52.546;13.570;2024-03-02T13:17:31;16.20;99.90
43641;DHT22;72791;52.546;13.570;2024-03-02T13:19:59;16.00;99.90
43641;DHT22;72791;52.546;13.570;2024-03-02T13:22:25;16.00;99.90
43641;DHT22;72791;52.546;13.570;2024-03-02T13:24:53;15.90;99.90
43641;DHT22;72791;52.546;13.570;2024-03-02T13:27:20;15.90;99.90
43641;DHT22;72791;52.546;13.570;2024-03-02T13:29:48;15.80;99.90
43641;DHT22;72791;52.546;13.570;2024-03-02T13:32:15;16.00;99.90
43641;DHT22;72791;52.546;13.570;2024-03-02T13:34:40;16.10;99.90
43641;DHT22;72791;52.546;13.570;2024-03-02T13:37:07;16.20;99.90
43641;DHT22;72791;52.546;13.570;2024-03-02T13:39:33;16.30;99.90
43641;DHT22;72791;52.546;13.570;2024-03-02T13:42:09;16.30;99.90
43641;DHT22;72791;52.546;13.570;2024-03-02T13:44:35;16.30;99.90
43641;DHT22;72791;52.546;13.570;2024-03-02T13:47:01;16.10;99.90
43641;DHT22;72791;52.546;13.570;2024-03-02T13:49:27;16.20;99.90
43641;DHT22;72791;52.546;13.570;2024-03-02T13:52:11;16.10;99.90
43641;DHT22;72791;52.546;13.570;2024-03-02T13:54:45;16.20;99.90
43641;DHT22;72791;52.546;13.570;2024-03-02T13:57:13;16.30;99.90
43641;DHT22;72791;52.546;13.570;2024-03-02T13:59:41;16.20;99.90
43641;DHT22;72791;52.546;13.570;2024-03-02T14:02:08;16.20;99.90
43641;DHT22;72791;52.546;13.570;2024-03-02T14:04:35;16.10;99.90
43641;DHT22;72791;52.546;13.570;2024-03-02T14:07:01;15.90;99.90
43641;DHT22;72791;52.546;13.570;2024-03-02T14:09:27;15.60;99.90
43641;DHT22;72791;52.546;13.570;2024-03-02T14:11:56;15.50;99.90
43641;DHT22;72791;52.546;13.570;2024-03-02T14:14:43;15.50;99.90
43641;DHT22;72791;52.546;13.570;2024-03-02T14:17:09;15.60;99.90
43641;DHT22;72791;52.546;13.570;2024-03-02T14:19:40;15.60;99.90
43641;DHT22;72791;52.546;13.570;2024-03-02T14:22:06;15.60;99.90
43641;DHT22;72791;52.546;13.570;2024-03-02T14:24:32;15.50;99.90
43641;DHT22;72791;52.546;13.570;2024-03-02T14:26:57;15.40;99.90
43641;DHT22;72791;52.546;13.570;2024-03-02T14:29:27;15.40;99.90
43641;DHT22;72791;52.546;13.570;2024-03-02T14:31:54;15.50;99.90
43641;DHT22;72791;52.546;13.570;2024-03-02T14:34:21;15.50;99.90
43641;DHT22;72791;52.546;13.570;2024-03-02T14:36:48;15.40;99.90
43641;DHT22;72791;52.546;13.570;2024-03-02T14:39:16;15.30;99.90
43641;DHT22;72791;52.546;13.570;2024-03-02T14:41:45;15.30;99.90
43641;DHT22;72791;52.546;13.570;2024-03-02T14:44:11;15.20;99.90
43641;DHT22;72791;52.546;13.570;2024-03-02T14:46:37;15.00;99.90
43641;DHT22;72791;52.546;13.570;2024-03-02T14:49:03;15.00;99.90
43641;DHT22;72791;52.546;13.570;2024-03-02T14:51:30;15.00;99.90
43641;DHT22;72791;52.546;13.570;2024-03-02T14:53:56;15.00;99.90
43641;DHT22;72791;52.546;13.570;2024-03-02T14:56:24;15.00;99.90
43641;DHT22;72791;52.546;13.570;2024-03-02T14:58:50;15.10;99.90
43641;DHT22;72791;52.546;13.570;2024-03-02T15:01:18;15.10;99.90
43641;DHT22;72791;52.546;13.570;2024-03-02T15:03:44;15.00;99.90
43641;DHT22;72791;52.546;13.570;2024-03-02T15:06:10;14.80;99.90
43641;DHT22;72791;52.546;13.570;2024-03-02T15:08:36;14.60;99.90
43641;DHT22;72791;52.546;13.570;2024-03-02T15:11:03;14.40;99.90
43641;DHT22;72791;52.546;13.570;2024-03-02T15:13:29;14.10;99.90
43641;DHT22;72791;52.546;13.570;2024-03-02T15:15:55;13.90;99.90
43641;DHT22;72791;52.546;13.570;2024-03-02T15:18:21;13.60;99.90
43641;DHT22;72791;52.546;13.570;2024-03-02T15:20:47;13.30;99.90
43641;DHT22;72791;52.546;13.570;2024-03-02T15:23:13;13.10;99.90
43641;DHT22;72791;52.546;13.570;2024-03-02T15:25:40;13.00;99.90
43641;DHT22;72791;52.546;13.570;2024-03-02T15:28:06;12.90;99.90
43641;DHT22;72791;52.546;13.570;2024-03-02T15:30:32;12.80;99.90
43641;DHT22;72791;52.546;13.570;2024-03-02T15:33:00;12.70;99.90
43641;DHT22;72791;52.546;13.570;2024-03-02T15:35:26;12.70;99.90